createdAt,value
2018-06-09T00:02:09.599Z,155.30
2018-06-09T00:04:41.182Z,154.43
2018-06-09T00:07:13.826Z,160.67
2018-06-09T00:09:45.395Z,155.13
2018-06-09T00:12:17.263Z,151.70
2018-06-09T00:14:49.175Z,149.17
2018-06-09T00:17:21.442Z,148.57
2018-06-09T00:19:53.216Z,153.17
2018-06-09T00:22:24.683Z,160.77
2018-06-09T00:24:56.299Z,156.20
2018-06-09T00:27:28.212Z,160.53
2018-06-09T00:29:59.840Z,155.50
2018-06-09T00:32:31.543Z,150.97
2018-06-09T00:35:04.119Z,146.80
2018-06-09T00:37:35.656Z,142.27
2018-06-09T00:40:07.279Z,143.10
2018-06-09T00:42:39.323Z,148.67
2018-06-09T00:45:11.119Z,139.70
2018-06-09T00:47:42.762Z,143.13
2018-06-09T00:50:14.367Z,144.10
2018-06-09T00:52:46.344Z,139.13
2018-06-09T00:55:17.928Z,138.03
2018-06-09T00:57:48.929Z,138.97
2018-06-09T01:00:20.633Z,139.20
2018-06-09T01:02:52.372Z,133.30
2018-06-09T01:05:24.542Z,125.60
2018-06-09T01:07:57.976Z,125.17
2018-06-09T01:10:29.599Z,127.07
2018-06-09T01:13:01.504Z,125.37
2018-06-09T01:15:32.939Z,125.63
2018-06-09T01:18:05.182Z,127.03
2018-06-09T01:20:37.686Z,131.00
2018-06-09T01:23:09.401Z,129.90
2018-06-09T01:25:41.168Z,128.93
2018-06-09T01:28:13.260Z,128.60
2018-06-09T01:30:44.810Z,132.00
2018-06-09T01:33:16.862Z,129.77
2018-06-09T01:35:48.629Z,134.63
2018-06-09T01:38:20.637Z,133.30
2018-06-09T01:40:52.079Z,136.60
2018-06-09T01:43:23.728Z,136.33
2018-06-09T01:45:55.288Z,135.37
2018-06-09T01:48:27.036Z,132.87
2018-06-09T01:50:57.794Z,132.70
2018-06-09T01:53:29.643Z,128.83
2018-06-09T01:56:01.109Z,131.30
2018-06-09T01:58:32.906Z,124.57
2018-06-09T02:01:04.400Z,116.50
2018-06-09T02:03:36.210Z,112.90
2018-06-09T02:06:07.861Z,108.43
2018-06-09T02:08:41.358Z,109.23
2018-06-09T02:11:12.756Z,107.93
2018-06-09T02:13:43.680Z,109.20
2018-06-09T02:16:15.229Z,112.63
2018-06-09T02:18:47.019Z,108.40
2018-06-09T02:21:18.672Z,102.77
2018-06-09T02:23:50.557Z,101.03
2018-06-09T02:26:21.970Z,94.87
2018-06-09T02:28:53.983Z,94.43
2018-06-09T02:31:25.737Z,92.93
2018-06-09T02:33:57.274Z,91.00
2018-06-09T02:36:28.935Z,89.47
2018-06-09T02:39:00.670Z,88.87
2018-06-09T02:41:32.365Z,86.77
2018-06-09T02:44:04.103Z,85.20
2018-06-09T02:46:35.732Z,79.73
2018-06-09T02:49:06.718Z,75.67
2018-06-09T02:51:38.134Z,76.60
2018-06-09T02:54:10.160Z,72.23
2018-06-09T02:56:41.662Z,75.60
2018-06-09T02:59:12.693Z,71.93
2018-06-09T03:01:44.219Z,72.17
2018-06-09T03:04:15.715Z,73.13
2018-06-09T03:06:46.396Z,70.43
2018-06-09T03:09:19.377Z,72.80
2018-06-09T03:11:50.872Z,73.87
2018-06-09T03:14:22.757Z,78.37
2018-06-09T03:16:54.376Z,89.43
2018-06-09T03:19:26.355Z,92.73
2018-06-09T03:21:58.245Z,98.73
2018-06-09T03:24:30.317Z,104.13
2018-06-09T03:27:02.039Z,105.57
2018-06-09T03:29:33.817Z,105.23
2018-06-09T03:32:05.482Z,111.97
2018-06-09T03:34:37.503Z,100.97
2018-06-09T03:37:09.362Z,98.10
2018-06-09T03:39:41.376Z,100.47
2018-06-09T03:42:12.858Z,104.93
2018-06-09T03:44:44.975Z,102.07
2018-06-09T03:47:16.510Z,105.77
2018-06-09T03:49:48.583Z,103.17
2018-06-09T03:52:20.486Z,104.33
2018-06-09T03:54:52.315Z,103.83
2018-06-09T03:57:23.882Z,98.27
2018-06-09T03:59:55.772Z,103.40
2018-06-09T04:02:27.552Z,102.13
2018-06-09T04:04:59.368Z,102.33
2018-06-09T04:07:30.764Z,97.90
2018-06-09T04:10:03.482Z,101.37
2018-06-09T04:12:35.297Z,103.13
2018-06-09T04:15:07.120Z,112.93
2018-06-09T04:17:38.820Z,95.30
2018-06-09T04:20:10.393Z,97.43
2018-06-09T04:22:41.839Z,94.43
2018-06-09T04:25:13.828Z,99.03
2018-06-09T04:27:45.552Z,96.03
2018-06-09T04:30:17.711Z,96.43
2018-06-09T04:32:49.244Z,87.60
2018-06-09T04:35:20.911Z,87.40
2018-06-09T04:37:52.562Z,81.27
2018-06-09T04:40:23.600Z,77.63
2018-06-09T04:42:55.145Z,75.77
2018-06-09T04:45:26.655Z,73.57
2018-06-09T04:47:58.217Z,74.10
2018-06-09T04:50:29.566Z,72.90
2018-06-09T04:53:00.887Z,69.80
2018-06-09T04:55:32.504Z,65.10
2018-06-09T04:58:03.681Z,60.00
2018-06-09T05:00:35.123Z,75.20
2018-06-09T05:03:06.455Z,60.87
2018-06-09T05:05:37.763Z,51.80
2018-06-09T05:08:09.102Z,55.30
2018-06-09T05:10:41.965Z,54.90
2018-06-09T05:13:13.755Z,54.75
2018-06-09T05:15:46.060Z,44.40
2018-06-09T05:18:17.605Z,49.20
2018-06-09T05:20:49.389Z,53.97
2018-06-09T05:23:21.195Z,45.53
2018-06-09T05:25:53.379Z,41.50
2018-06-09T05:28:25.179Z,44.30
2018-06-09T05:30:56.885Z,59.43
2018-06-09T05:33:28.491Z,55.47
2018-06-09T05:36:00.393Z,48.07
2018-06-09T05:38:32.231Z,45.37
2018-06-09T05:41:03.990Z,48.95
2018-06-09T05:43:35.410Z,55.03
2018-06-09T05:46:07.563Z,49.67
2018-06-09T05:48:39.261Z,66.85
2018-06-09T05:51:11.178Z,47.15
2018-06-09T05:53:42.890Z,60.17
2018-06-09T05:56:14.467Z,58.68
2018-06-09T05:58:46.188Z,58.78
2018-06-09T06:01:18.152Z,48.98
2018-06-09T06:03:50.159Z,65.67
2018-06-09T06:06:22.237Z,62.73
2018-06-09T06:08:53.675Z,57.55
2018-06-09T06:11:27.217Z,47.77
2018-06-09T06:13:57.973Z,53.10
2018-06-09T06:16:29.909Z,57.93
2018-06-09T06:19:00.895Z,49.23
2018-06-09T06:29:29.040Z,57.35
2018-06-09T06:32:00.708Z,47.70
2018-06-09T06:34:32.757Z,60.38
2018-06-09T06:37:04.477Z,66.90
2018-06-09T06:39:36.142Z,54.58
2018-06-09T06:42:07.007Z,65.67
2018-06-09T06:44:38.912Z,57.33
2018-06-09T06:47:11.033Z,72.10
2018-06-09T06:49:42.806Z,54.23
2018-06-09T06:52:14.496Z,68.72
2018-06-09T06:54:46.104Z,54.75
2018-06-09T06:57:17.642Z,57.48
2018-06-09T06:59:48.659Z,73.10
2018-06-09T07:02:20.293Z,63.17
2018-06-09T07:04:52.438Z,63.90
2018-06-09T07:07:24.020Z,71.50
2018-06-09T07:09:56.219Z,71.47
2018-06-09T07:12:28.839Z,68.12
2018-06-09T07:15:01.276Z,67.17
2018-06-09T07:17:32.813Z,92.37
2018-06-09T07:20:04.907Z,52.40
2018-06-09T07:22:35.600Z,59.48
2018-06-09T07:25:07.350Z,48.50
2018-06-09T07:27:39.281Z,48.90
2018-06-09T07:30:11.188Z,60.17
2018-06-09T07:32:43.022Z,52.55
2018-06-09T07:35:14.800Z,53.33
2018-06-09T07:37:46.414Z,51.25
2018-06-09T07:40:17.500Z,73.62
2018-06-09T07:42:49.168Z,60.48
2018-06-09T07:45:20.995Z,59.23
2018-06-09T07:47:52.386Z,58.50
2018-06-09T07:50:24.259Z,53.97
2018-06-09T07:52:56.063Z,67.62
2018-06-09T07:55:28.605Z,64.05
2018-06-09T07:58:00.108Z,53.87
2018-06-09T08:00:32.018Z,62.07
2018-06-09T08:03:03.567Z,71.77
2018-06-09T08:05:35.490Z,66.33
2018-06-09T08:08:07.103Z,71.80
2018-06-09T08:10:47.779Z,59.23
2018-06-09T08:13:22.499Z,71.27
2018-06-09T08:15:55.178Z,63.53
2018-06-09T08:18:26.890Z,73.07
2018-06-09T08:20:58.760Z,67.97
2018-06-09T08:23:30.160Z,54.30
2018-06-09T08:26:01.155Z,67.57
2018-06-09T08:28:47.967Z,62.87
2018-06-09T08:31:19.604Z,66.50
2018-06-09T08:33:51.118Z,56.80
2018-06-09T08:36:22.867Z,63.27
2018-06-09T08:38:54.340Z,65.00
2018-06-09T08:41:27.115Z,71.97
2018-06-09T08:43:59.005Z,60.57
2018-06-09T08:46:31.316Z,67.53
2018-06-09T08:49:03.021Z,68.60
2018-06-09T08:51:34.682Z,59.07
2018-06-09T08:54:06.313Z,56.50
2018-06-09T08:56:38.213Z,61.70
2018-06-09T08:59:11.099Z,54.10
2018-06-09T09:01:43.123Z,56.20
2018-06-09T09:04:14.673Z,51.40
2018-06-09T09:06:47.033Z,51.43
2018-06-09T09:09:18.890Z,51.63
2018-06-09T09:11:51.797Z,49.70
2018-06-09T09:14:24.972Z,52.57
2018-06-09T09:16:57.005Z,46.63
2018-06-09T09:19:29.432Z,53.60
2018-06-09T09:22:01.788Z,56.37
2018-06-09T09:24:33.571Z,52.10
2018-06-09T09:27:05.505Z,58.10
2018-06-09T09:29:37.158Z,40.20
2018-06-09T09:32:11.267Z,37.83
2018-06-09T09:34:43.064Z,55.57
2018-06-09T09:37:15.013Z,51.33
2018-06-09T09:39:46.819Z,55.87
2018-06-09T09:42:18.965Z,42.33
2018-06-09T09:44:50.332Z,52.57
2018-06-09T09:47:22.732Z,53.57
2018-06-09T09:49:54.399Z,40.53
2018-06-09T09:52:26.284Z,43.30
2018-06-09T09:54:58.006Z,52.73
2018-06-09T09:57:29.707Z,57.40
2018-06-09T10:00:01.180Z,40.50
2018-06-09T10:02:33.121Z,55.50
2018-06-09T10:05:04.997Z,44.20
2018-06-09T10:07:36.924Z,43.60
2018-06-09T10:10:08.541Z,47.03
2018-06-09T10:12:40.535Z,44.63
2018-06-09T10:15:13.995Z,44.70
2018-06-09T10:17:45.086Z,38.53
2018-06-09T10:20:16.782Z,49.30
2018-06-09T10:22:48.942Z,46.83
2018-06-09T10:25:20.777Z,43.87
2018-06-09T10:27:52.887Z,46.77
2018-06-09T10:30:24.500Z,43.30
2018-06-09T10:32:56.189Z,32.53
2018-06-09T10:35:27.962Z,47.33
2018-06-09T10:37:59.821Z,41.60
2018-06-09T10:40:31.648Z,42.77
2018-06-09T10:43:03.719Z,38.30
2018-06-09T10:45:35.936Z,40.50
2018-06-09T10:48:07.675Z,34.90
2018-06-09T10:50:39.337Z,41.40
2018-06-09T10:53:10.465Z,47.57
2018-06-09T10:55:47.355Z,30.13
2018-06-09T10:58:19.926Z,40.20
2018-06-09T11:00:51.703Z,38.67
2018-06-09T11:03:23.409Z,39.40
2018-06-09T11:05:54.861Z,52.30
2018-06-09T11:08:26.504Z,31.40
2018-06-09T11:10:58.272Z,30.97
2018-06-09T11:13:29.470Z,38.23
2018-06-09T11:16:01.079Z,32.23
2018-06-09T11:18:33.337Z,30.67
2018-06-09T11:21:05.271Z,34.63
2018-06-09T11:23:37.598Z,37.07
2018-06-09T11:26:09.079Z,35.07
2018-06-09T11:28:43.141Z,31.77
2018-06-09T11:31:15.153Z,35.97
2018-06-09T11:33:47.019Z,31.33
2018-06-09T11:36:18.716Z,27.57
2018-06-09T11:38:50.942Z,38.47
2018-06-09T11:41:22.789Z,28.50
2018-06-09T11:43:55.374Z,27.37
2018-06-09T11:46:26.557Z,31.30
2018-06-09T11:48:57.461Z,26.93
2018-06-09T11:51:29.033Z,30.57
2018-06-09T11:54:06.877Z,25.00
2018-06-09T11:56:38.673Z,29.83
2018-06-09T11:59:10.779Z,38.23
2018-06-09T12:01:42.451Z,28.37
2018-06-09T12:04:14.249Z,28.13
2018-06-09T12:06:45.823Z,31.23
2018-06-09T12:09:18.094Z,26.30
2018-06-09T12:11:49.673Z,35.57
2018-06-09T12:14:21.923Z,30.60
2018-06-09T12:16:54.644Z,34.37
2018-06-09T12:19:27.719Z,30.57
2018-06-09T12:21:59.257Z,31.27
2018-06-09T12:24:30.034Z,35.43
2018-06-09T12:27:01.486Z,32.60
2018-06-09T12:29:34.468Z,28.83
2018-06-09T12:32:06.071Z,25.80
2018-06-09T12:34:37.620Z,30.73
2018-06-09T12:37:09.328Z,37.30
2018-06-09T12:39:41.560Z,30.23
2018-06-09T12:42:13.606Z,34.73
2018-06-09T12:44:44.830Z,23.40
2018-06-09T12:47:15.690Z,33.10
2018-06-09T12:49:47.898Z,33.57
2018-06-09T12:52:20.160Z,33.87
2018-06-09T12:54:52.113Z,31.13
2018-06-09T12:57:23.724Z,34.40
2018-06-09T12:59:55.295Z,31.07
2018-06-09T13:02:27.025Z,39.63
2018-06-09T13:04:58.853Z,31.03
2018-06-09T13:07:30.314Z,29.13
2018-06-09T13:10:01.979Z,35.40
2018-06-09T13:12:33.699Z,48.57
2018-06-09T13:15:05.618Z,36.37
2018-06-09T13:17:38.426Z,28.33
2018-06-09T13:20:10.811Z,35.33
2018-06-09T13:22:42.701Z,35.07
2018-06-09T13:25:14.610Z,39.37
2018-06-09T13:27:46.479Z,34.00
2018-06-09T13:30:18.205Z,34.63
2018-06-09T13:32:49.072Z,36.23
2018-06-09T13:35:21.501Z,29.23
2018-06-09T13:37:53.069Z,33.67
2018-06-09T13:40:24.172Z,22.70
2018-06-09T13:42:55.856Z,28.77
2018-06-09T13:45:27.633Z,28.30
2018-06-09T13:47:58.492Z,34.70
2018-06-09T13:50:30.620Z,29.37
2018-06-09T13:53:02.289Z,30.17
2018-06-09T13:55:34.429Z,31.13
2018-06-09T13:58:05.964Z,28.33
2018-06-09T14:00:38.120Z,28.73
2018-06-09T14:03:09.848Z,34.73
2018-06-09T14:05:40.892Z,32.73
2018-06-09T14:08:11.516Z,32.17
2018-06-09T14:10:43.746Z,30.63
2018-06-09T14:13:15.533Z,28.63
2018-06-09T14:15:48.110Z,30.47
2018-06-09T14:18:21.550Z,38.60
2018-06-09T14:20:55.698Z,28.60
2018-06-09T14:23:27.210Z,32.03
2018-06-09T14:25:59.159Z,27.43
2018-06-09T14:28:30.665Z,30.70
2018-06-09T14:31:05.083Z,28.63
2018-06-09T14:33:37.615Z,32.07
2018-06-09T14:36:08.318Z,28.63
2018-06-09T14:38:39.906Z,23.50
2018-06-09T14:41:12.306Z,36.07
2018-06-09T14:43:43.974Z,34.40
2018-06-09T14:46:16.334Z,42.53
2018-06-09T14:48:47.698Z,27.80
2018-06-09T14:51:19.533Z,31.20
2018-06-09T14:53:50.513Z,39.27
2018-06-09T14:56:22.427Z,34.20
2018-06-09T14:58:54.219Z,33.43
2018-06-09T15:01:25.957Z,29.90
2018-06-09T15:03:57.381Z,34.30
2018-06-09T15:06:29.392Z,37.20
2018-06-09T15:09:00.857Z,40.87
2018-06-09T15:11:32.747Z,34.97
2018-06-09T15:14:04.316Z,31.00
2018-06-09T15:16:36.914Z,37.27
2018-06-09T15:19:09.137Z,38.30
2018-06-09T15:21:41.611Z,36.17
2018-06-09T15:24:14.462Z,45.20
2018-06-09T15:26:46.357Z,37.03
2018-06-09T15:29:20.302Z,37.43
2018-06-09T15:31:52.667Z,34.77
2018-06-09T15:34:24.269Z,35.97
2018-06-09T15:36:56.325Z,34.10
2018-06-09T15:39:27.914Z,37.03
2018-06-09T15:41:59.993Z,40.07
2018-06-09T15:44:32.496Z,37.83
2018-06-09T15:47:05.832Z,35.60
2018-06-09T15:49:39.182Z,40.27
2018-06-09T15:52:11.249Z,34.77
2018-06-09T15:54:42.778Z,32.83
2018-06-09T15:57:15.271Z,33.90
2018-06-09T15:59:48.259Z,40.40
2018-06-09T16:02:19.671Z,36.30
2018-06-09T16:04:51.204Z,31.23
2018-06-09T16:07:22.710Z,42.63
2018-06-09T16:09:54.130Z,31.27
2018-06-09T16:12:26.127Z,38.67
2018-06-09T16:14:58.210Z,44.97
2018-06-09T16:17:30.058Z,38.13
2018-06-09T16:20:03.035Z,39.43
2018-06-09T16:22:34.721Z,28.97
2018-06-09T16:25:08.032Z,41.67
2018-06-09T16:27:39.839Z,30.90
2018-06-09T16:30:11.446Z,36.87
2018-06-09T16:32:42.357Z,34.97
2018-06-09T16:35:26.751Z,39.87
2018-06-09T16:37:58.516Z,31.63
2018-06-09T16:40:30.242Z,35.20
2018-06-09T16:43:02.214Z,32.33
2018-06-09T16:45:32.990Z,27.40
2018-06-09T16:48:05.320Z,35.03
2018-06-09T16:50:38.282Z,29.33
2018-06-09T16:53:09.932Z,36.30
2018-06-09T16:55:42.034Z,34.27
2018-06-09T16:58:13.371Z,29.37
2018-06-09T17:00:45.091Z,30.33
2018-06-09T17:03:17.241Z,34.27
2018-06-09T17:05:48.977Z,34.03
2018-06-09T17:08:20.365Z,28.77
2018-06-09T17:10:52.549Z,41.80
2018-06-09T17:13:25.056Z,35.20
2018-06-09T17:15:56.758Z,36.10
2018-06-09T17:18:28.828Z,24.47
2018-06-09T17:21:01.555Z,37.70
2018-06-09T17:23:33.184Z,35.33
2018-06-09T17:26:04.728Z,25.17
2018-06-09T17:28:37.009Z,24.47
2018-06-09T17:31:10.037Z,35.63
2018-06-09T17:33:42.100Z,34.53
2018-06-09T17:36:13.052Z,37.93
2018-06-09T17:38:45.050Z,29.60
2018-06-09T17:41:16.618Z,35.33
2018-06-09T17:43:49.071Z,32.00
2018-06-09T17:46:20.754Z,38.40
2018-06-09T17:48:52.676Z,32.43
2018-06-09T17:51:24.428Z,30.77
2018-06-09T17:53:56.454Z,23.17
2018-06-09T17:56:28.420Z,34.67
2018-06-09T17:59:00.445Z,40.07
2018-06-09T18:01:32.461Z,39.13
2018-06-09T18:04:06.178Z,45.67
2018-06-09T18:06:36.656Z,41.73
2018-06-09T18:09:09.729Z,35.93
2018-06-09T18:11:41.152Z,37.93
2018-06-09T18:14:13.117Z,39.63
2018-06-09T18:16:44.781Z,32.13
2018-06-09T18:19:16.585Z,34.80
2018-06-09T18:21:49.037Z,34.13
2018-06-09T18:24:21.148Z,37.20
2018-06-09T18:26:52.814Z,45.67
2018-06-09T18:29:24.801Z,29.20
2018-06-09T18:31:56.412Z,36.30
2018-06-09T18:34:28.218Z,33.77
2018-06-09T18:37:00.184Z,33.27
2018-06-09T18:39:32.071Z,41.60
2018-06-09T18:42:03.753Z,29.40
2018-06-09T18:44:36.280Z,34.33
2018-06-09T18:47:07.682Z,37.07
2018-06-09T18:49:40.006Z,43.03
2018-06-09T18:52:11.543Z,37.63
2018-06-09T18:54:43.414Z,40.97
2018-06-09T18:57:15.118Z,31.73
2018-06-09T18:59:46.757Z,44.73
2018-06-09T19:02:18.421Z,33.57
2018-06-09T19:04:50.484Z,37.40
2018-06-09T19:07:21.757Z,28.03
2018-06-09T19:09:53.515Z,40.57
2018-06-09T19:12:24.925Z,36.53
2018-06-09T19:14:56.823Z,31.13
2018-06-09T19:17:28.240Z,31.23
2018-06-09T19:20:00.272Z,27.03
2018-06-09T19:22:32.790Z,37.10
2018-06-09T19:25:03.640Z,35.17
2018-06-09T19:27:35.273Z,26.40
2018-06-09T19:30:06.983Z,44.33
2018-06-09T19:32:38.450Z,38.20
2018-06-09T19:35:10.396Z,29.37
2018-06-09T19:37:42.306Z,36.40
2018-06-09T19:40:14.236Z,39.20
2018-06-09T19:42:46.069Z,40.93
2018-06-09T19:45:17.855Z,39.57
2018-06-09T19:47:49.222Z,37.17
2018-06-09T19:50:20.941Z,41.37
2018-06-09T19:52:52.466Z,47.40
2018-06-09T19:55:24.310Z,51.13
2018-06-09T19:57:56.032Z,48.43
2018-06-09T20:00:27.734Z,48.23
2018-06-09T20:02:59.217Z,52.40
2018-06-09T20:05:29.932Z,56.17
2018-06-09T20:08:01.333Z,52.67
2018-06-09T20:10:33.180Z,50.37
2018-06-09T20:13:04.800Z,57.43
2018-06-09T20:15:36.544Z,56.63
2018-06-09T20:18:08.251Z,52.47
2018-06-09T20:20:40.711Z,53.00
2018-06-09T20:23:13.459Z,48.67
2018-06-09T20:25:45.268Z,45.87
2018-06-09T20:28:17.185Z,56.77
2018-06-09T20:30:49.299Z,52.70
2018-06-09T20:33:21.125Z,77.13
2018-06-09T20:35:52.662Z,60.50
2018-06-09T20:38:24.273Z,42.90
2018-06-09T20:40:56.088Z,42.30
2018-06-09T20:43:27.805Z,40.17
2018-06-09T20:46:00.663Z,46.63
2018-06-09T20:48:32.544Z,39.07
2018-06-09T20:51:04.955Z,40.07
2018-06-09T20:53:36.452Z,41.93
2018-06-09T20:56:08.222Z,47.17
2018-06-09T20:58:40.439Z,42.83
2018-06-09T21:01:12.176Z,47.20
2018-06-09T21:03:43.863Z,36.13
2018-06-09T21:06:16.214Z,43.50
2018-06-09T21:08:47.073Z,37.20
2018-06-09T21:11:18.538Z,37.17
2018-06-09T21:13:49.386Z,36.97
2018-06-09T21:16:20.595Z,37.83
2018-06-09T21:18:52.316Z,47.93
2018-06-09T21:21:23.995Z,45.63
2018-06-09T21:23:56.291Z,46.53
2018-06-09T21:26:32.997Z,38.10
2018-06-09T21:29:09.138Z,36.50
2018-06-09T21:31:46.297Z,49.53
2018-06-09T21:34:34.602Z,36.93
2018-06-09T21:37:12.490Z,43.57
2018-06-09T21:39:49.034Z,42.57
2018-06-09T21:42:25.294Z,48.53
2018-06-09T21:45:04.339Z,47.90
2018-06-09T21:47:36.391Z,50.73
2018-06-09T21:50:07.913Z,51.63
2018-06-09T21:52:39.573Z,37.00
2018-06-09T21:55:10.953Z,47.30
2018-06-09T21:57:42.912Z,38.53
2018-06-09T22:00:14.924Z,41.83
2018-06-09T22:02:46.631Z,46.73
2018-06-09T22:05:18.225Z,32.80
2018-06-09T22:07:50.132Z,47.37
2018-06-09T22:10:22.035Z,47.70
2018-06-09T22:12:53.042Z,50.40
2018-06-09T22:15:24.576Z,38.93
2018-06-09T22:17:56.477Z,40.73
2018-06-09T22:20:28.036Z,40.47
2018-06-09T22:23:00.203Z,38.23
2018-06-09T22:25:37.715Z,36.60
2018-06-09T22:28:09.612Z,39.47
2018-06-09T22:30:40.949Z,41.00
2018-06-09T22:33:11.941Z,45.33
2018-06-09T22:35:43.436Z,50.43
2018-06-09T22:38:15.367Z,41.63
2018-06-09T22:40:46.770Z,51.73
2018-06-09T22:43:18.743Z,45.67
2018-06-09T22:45:50.339Z,49.87
2018-06-09T22:48:22.294Z,41.87
2018-06-09T22:50:54.000Z,48.17
2018-06-09T22:53:25.647Z,44.83
2018-06-09T22:55:57.281Z,45.17
2018-06-09T22:58:29.077Z,43.47
2018-06-09T23:01:00.612Z,42.20
2018-06-09T23:03:32.633Z,31.57
2018-06-09T23:06:04.260Z,35.77
2018-06-09T23:08:36.211Z,33.70
2018-06-09T23:11:07.645Z,41.57
2018-06-09T23:13:39.712Z,36.20
2018-06-09T23:16:11.145Z,43.80
2018-06-09T23:18:42.732Z,48.37
2018-06-09T23:21:13.567Z,37.10
2018-06-09T23:23:44.504Z,37.93
2018-06-09T23:26:17.503Z,49.10
2018-06-09T23:28:49.363Z,42.13
2018-06-09T23:31:20.780Z,40.87
2018-06-09T23:33:52.313Z,31.77
2018-06-09T23:36:23.910Z,37.70
2018-06-09T23:38:55.945Z,35.63
2018-06-09T23:41:27.630Z,37.77
2018-06-09T23:43:59.435Z,32.27
2018-06-09T23:46:30.980Z,35.90
2018-06-09T23:49:02.676Z,34.63
2018-06-09T23:51:34.745Z,29.33
2018-06-09T23:54:05.651Z,44.40
2018-06-09T23:56:37.230Z,38.23
2018-06-09T23:59:09.073Z,35.10
